РУС

ENG

 
  Pireps - S7
 

Рейс SBI2158

  • Выполнял: Danil Belov
  • Аэропорт отправления: (URML)
  • Аэропорт назначения: Domodedovo Airport (UUDD)
  • Тип ВС: A320-214 (VQ-BPL)
  • Время полёта: 02.29
  • Дата полёта: 14.11.2020
  • Маршрут: PERAT B945 UP N39 ST A928 FE
  • Статус: Одобрен

Детали полёта
Gross Revenue:
(133 load / $ 205.00 per unit
$ 27, 265.00
Fuel Cost:
(6405 fuel used @ 5.1 / unit)
$ 32, 665.50


Дополнительная информация о полёте:

Лог

Aircraft Used in flight is Aerosoft Airbus A320Neo S7 VQ-BCF
21:33 Boarding
21:33 Engine 1 Started
21:33 Engine 2 Started
21:33 Beacon Lights ON at 30 AGL
21:33 Brakes are On
21:38 Navigation Lights ON at 30 AGL
21:38 Strobe Lights ON at 30 AGL
21:38 Taxi Lights ON at 30 AGL
21:38 Brakes are Released
21:39Flaps 1 Selected at 30ft and 0kts
21:39Flaps 2 Selected at 30ft and 0kts
21:39Flaps 3 Selected at 30ft and 0kts
21:40Flaps 4 Selected at 30ft and 14kts
21:40Flaps 5 Selected at 30ft and 14kts
21:40 Landing Lights ON at 30 AGL
21:43 You Took off @ 176 Knots and Flaps at Position 5
Departure Weather
URML 131830Z 31004MPS 9999 FEW027 04/01 Q1031 R32/01//70 NOSIG RMK QFE773/1031=
21:43 Landing Gear Up @ 182 Knots and 110 Feet
21:43Flaps 4 Selected at 130ft and 183kts
21:43 Taxi Lights OFF at 130 AGL
21:43Flaps Retracted at 360ft and 191kts
21:46 Landing Lights OFF at 5990 AGL
23:46 Below 10000 feet you are not allowed to go over 250 knots
23:50Flaps 1 Selected at 2950ft and 214kts
23:50Flaps 2 Selected at 2990ft and 192kts
23:50Flaps 3 Selected at 2990ft and 192kts
23:51Flaps 4 Selected at 2740ft and 184kts
23:51 Landing Gear Down @ 179 Knots and 2690 Feet
23:51Flaps 5 Selected at 2660ft and 163kts
23:54 You exceeded maximum bank angle
00:00 You Landed @ 122 Knots and with -500 Vertical Speed
Arrival Weather
UUDD 131800Z VRB01MPS 8000 BKN005 OVC016 03/01 Q1029 R32L/CLRD60 NOSIG
00:00 Taxiing to gate
00:00Flaps Retracted at 600ft and 24kts
00:01 Brakes are On
00:01 Engine 1 Stoped
00:01 Engine 2 Stoped
Pirep logged with S7 Tracking 1.0.0.14


!!! Превышение допустимого значения вертикальной скорости при посадке: -5%


Общая оценка полета : 95%




Route Map



 
 
   
 
Новости

03.09.2020 - Полеты в MFS 2020

Спешим сообщить вам, что теперь наш S7 Pad поддерживается для полетов в новом симуляторе MFS 2020. В разделе Загрузки вы найдете FSUIPC7.rar
Инструкция для запуска прилагается!

   
 
Авторизация






Регистрация

Восстановить пароль?

Мы в соц. сетях

      



   
 





   
 


   
 


Яндекс.Метрика

www.va-s7.ru 2011-2020
Все права защищены.



Минуточку внимания!
Сайт va-s7.ru не является коммерческим проектом. Мы не имеем отношения к торговым маркам "S7" и "Globus" и их представителям.
Эмблемы на сайте являются собственностью соответствующих компаний.

аэронавигационная метеорологическая и любая другая информация с данного ресурса ни в коем случае не должна использоваться для реальных полетов